createdAt,value
2022-10-07T00:01:11.297Z,38.58
2022-10-07T00:03:41.438Z,38.75
2022-10-07T00:06:13.835Z,38.95
2022-10-07T00:08:43.575Z,39.97
2022-10-07T00:11:14.259Z,38.00
2022-10-07T00:13:43.474Z,39.42
2022-10-07T00:16:13.138Z,38.45
2022-10-07T00:18:42.808Z,39.78
2022-10-07T00:21:12.939Z,38.25
2022-10-07T00:23:41.975Z,38.63
2022-10-07T00:26:11.947Z,38.58
2022-10-07T00:28:39.884Z,39.15
2022-10-07T00:31:09.581Z,39.33
2022-10-07T00:33:40.040Z,39.97
2022-10-07T00:36:11.482Z,39.70
2022-10-07T00:38:39.609Z,39.45
2022-10-07T00:41:08.684Z,41.10
2022-10-07T00:43:36.711Z,40.88
2022-10-07T00:46:08.937Z,40.45
2022-10-07T00:48:39.214Z,39.63
2022-10-07T00:51:10.107Z,40.35
2022-10-07T00:53:41.457Z,40.53
2022-10-07T00:56:10.695Z,40.22
2022-10-07T00:58:40.518Z,40.90
2022-10-07T01:01:11.356Z,40.38
2022-10-07T01:03:40.169Z,39.50
2022-10-07T01:06:10.378Z,39.85
2022-10-07T01:08:38.501Z,41.50
2022-10-07T01:11:18.405Z,41.38
2022-10-07T01:13:58.720Z,41.15
2022-10-07T01:16:31.337Z,41.40
2022-10-07T01:19:06.524Z,40.67
2022-10-07T01:21:42.163Z,40.83
2022-10-07T01:24:21.983Z,40.40
2022-10-07T01:27:01.212Z,41.28
2022-10-07T01:29:34.777Z,41.22
2022-10-07T01:32:07.198Z,40.67
2022-10-07T01:34:37.101Z,40.60
2022-10-07T01:37:09.415Z,40.28
2022-10-07T01:39:41.092Z,39.72
2022-10-07T01:42:11.088Z,42.05
2022-10-07T01:44:41.244Z,41.10
2022-10-07T01:47:09.198Z,40.47
2022-10-07T01:49:37.563Z,41.50
2022-10-07T01:52:18.170Z,38.95
2022-10-07T01:55:04.883Z,40.78
2022-10-07T01:57:42.576Z,40.55
2022-10-07T02:00:12.874Z,40.17
2022-10-07T02:02:55.101Z,40.58
2022-10-07T02:05:34.314Z,41.42
2022-10-07T02:08:16.378Z,39.33
2022-10-07T02:10:58.711Z,40.28
2022-10-07T02:13:34.835Z,40.72
2022-10-07T02:16:10.715Z,40.80
2022-10-07T02:18:40.828Z,39.13
2022-10-07T02:21:10.768Z,40.28
2022-10-07T02:23:41.263Z,40.75
2022-10-07T02:26:14.046Z,40.95
2022-10-07T02:28:45.524Z,40.08
2022-10-07T02:31:17.699Z,40.42
2022-10-07T02:33:47.437Z,41.20
2022-10-07T02:36:22.948Z,39.20
2022-10-07T02:38:50.929Z,40.75
2022-10-07T02:41:32.327Z,39.75
2022-10-07T02:44:11.052Z,40.60
2022-10-07T02:46:44.135Z,40.17
2022-10-07T02:49:15.489Z,39.65
2022-10-07T02:51:48.243Z,40.67
2022-10-07T02:54:20.760Z,39.85
2022-10-07T02:56:52.422Z,39.30
2022-10-07T02:59:24.535Z,38.38
2022-10-07T03:01:55.042Z,39.60
2022-10-07T03:04:23.793Z,39.53
2022-10-07T03:06:52.621Z,40.25
2022-10-07T03:09:20.616Z,39.28
2022-10-07T03:11:49.342Z,39.40
2022-10-07T03:14:17.300Z,40.78
2022-10-07T03:16:46.639Z,40.15
2022-10-07T03:19:14.570Z,39.30
2022-10-07T03:21:42.473Z,39.47
2022-10-07T03:24:11.321Z,39.72
2022-10-07T03:26:39.765Z,39.58
2022-10-07T03:29:08.419Z,39.20
2022-10-07T03:31:36.512Z,41.03
2022-10-07T03:34:05.827Z,39.63
2022-10-07T03:36:33.762Z,40.08
2022-10-07T03:39:01.858Z,38.47
2022-10-07T03:41:29.844Z,39.72
2022-10-07T03:43:59.116Z,38.95
2022-10-07T03:46:27.269Z,40.17
2022-10-07T03:48:55.277Z,39.13
2022-10-07T03:51:24.925Z,38.72
2022-10-07T03:53:54.530Z,39.28
2022-10-07T03:56:22.502Z,38.13
2022-10-07T03:58:50.506Z,38.28
2022-10-07T04:01:18.509Z,38.08
2022-10-07T04:03:47.517Z,38.38
2022-10-07T04:06:15.746Z,38.22
2022-10-07T04:08:45.177Z,38.95
2022-10-07T04:11:13.392Z,40.15
2022-10-07T04:13:41.324Z,37.80
2022-10-07T04:16:10.431Z,38.53
2022-10-07T04:18:38.478Z,39.13
2022-10-07T04:21:06.695Z,39.33
2022-10-07T04:23:35.190Z,37.58
2022-10-07T04:26:09.271Z,38.35
2022-10-07T04:28:37.701Z,38.05
2022-10-07T04:31:06.787Z,38.15
2022-10-07T04:33:34.948Z,36.83
2022-10-07T04:36:05.572Z,36.95
2022-10-07T04:38:33.743Z,36.78
2022-10-07T04:41:07.960Z,36.00
2022-10-07T04:43:36.528Z,36.65
2022-10-07T04:46:07.293Z,35.50
2022-10-07T04:48:38.653Z,36.10
2022-10-07T04:51:08.583Z,35.85
2022-10-07T04:53:37.500Z,34.75
2022-10-07T04:56:08.165Z,35.30
2022-10-07T04:58:37.130Z,34.58
2022-10-07T05:01:09.859Z,36.25
2022-10-07T05:03:39.518Z,35.00
2022-10-07T05:06:09.346Z,35.55
2022-10-07T05:08:37.413Z,35.28
2022-10-07T05:11:06.953Z,37.17
2022-10-07T05:13:35.234Z,36.38
2022-10-07T05:16:04.108Z,35.85
2022-10-07T05:18:33.403Z,35.20
2022-10-07T05:21:05.653Z,34.58
2022-10-07T05:23:35.919Z,34.50
2022-10-07T05:26:08.885Z,35.53
2022-10-07T05:28:37.632Z,35.10
2022-10-07T05:31:07.637Z,34.80
2022-10-07T05:33:36.825Z,34.88
2022-10-07T05:36:05.597Z,34.47
2022-10-07T05:38:33.817Z,35.40
2022-10-07T05:41:03.559Z,35.35
2022-10-07T05:43:36.407Z,34.70
2022-10-07T05:46:06.480Z,34.75
2022-10-07T05:48:39.174Z,35.75
2022-10-07T05:51:09.030Z,36.08
2022-10-07T05:53:41.050Z,33.63
2022-10-07T05:56:10.520Z,34.63
2022-10-07T05:58:39.895Z,34.75
2022-10-07T06:01:13.902Z,33.55
2022-10-07T06:03:42.475Z,35.38
2022-10-07T06:06:10.373Z,34.45
2022-10-07T06:08:38.442Z,34.67
2022-10-07T06:11:24.455Z,35.67
2022-10-07T06:13:55.542Z,34.83
2022-10-07T06:16:24.717Z,35.03
2022-10-07T06:18:53.181Z,35.85
2022-10-07T06:21:21.676Z,34.63
2022-10-07T06:23:52.883Z,34.88
2022-10-07T06:26:22.120Z,34.47
2022-10-07T06:28:50.686Z,33.85
2022-10-07T06:31:24.699Z,33.00
2022-10-07T06:33:53.267Z,33.83
2022-10-07T06:36:21.906Z,34.15
2022-10-07T06:38:51.260Z,32.97
2022-10-07T06:41:19.612Z,33.28
2022-10-07T06:43:47.690Z,34.85
2022-10-07T06:46:20.215Z,34.20
2022-10-07T06:48:51.334Z,34.67
2022-10-07T06:51:20.886Z,34.05
2022-10-07T06:53:53.513Z,33.72
2022-10-07T06:56:21.790Z,33.72
2022-10-07T06:58:50.537Z,33.97
2022-10-07T07:01:20.250Z,33.78
2022-10-07T07:03:48.607Z,32.65
2022-10-07T07:06:16.669Z,33.53
2022-10-07T07:08:45.891Z,33.60
2022-10-07T07:11:32.727Z,32.88
2022-10-07T07:14:00.821Z,33.25
2022-10-07T07:16:30.624Z,33.13
2022-10-07T07:19:01.808Z,33.42
2022-10-07T07:21:30.458Z,33.83
2022-10-07T07:23:59.685Z,32.65
2022-10-07T07:26:28.717Z,33.83
2022-10-07T07:28:59.185Z,34.00
2022-10-07T07:31:31.091Z,33.65
2022-10-07T07:34:01.830Z,34.17
2022-10-07T07:36:31.773Z,35.33
2022-10-07T07:39:01.401Z,34.92
2022-10-07T07:41:31.491Z,34.13
2022-10-07T07:44:01.160Z,34.63
2022-10-07T07:46:34.636Z,34.75
2022-10-07T07:49:02.687Z,34.90
2022-10-07T07:51:30.616Z,34.22
2022-10-07T07:53:59.861Z,33.90
2022-10-07T07:56:29.183Z,34.30
2022-10-07T07:58:59.532Z,34.33
2022-10-07T08:01:28.440Z,33.53
2022-10-07T08:03:58.757Z,32.58
2022-10-07T08:06:28.620Z,32.60
2022-10-07T08:08:58.573Z,30.92
2022-10-07T08:11:27.661Z,31.27
2022-10-07T08:13:56.434Z,31.33
2022-10-07T08:16:25.978Z,30.42
2022-10-07T08:18:55.448Z,31.48
2022-10-07T08:21:30.256Z,30.08
2022-10-07T08:23:59.293Z,31.10
2022-10-07T08:26:28.739Z,30.55
2022-10-07T08:28:57.822Z,30.67
2022-10-07T08:31:27.596Z,31.45
2022-10-07T08:33:59.423Z,29.85
2022-10-07T08:36:32.675Z,30.88
2022-10-07T08:39:01.558Z,31.40
2022-10-07T08:41:42.409Z,32.08
2022-10-07T08:44:19.950Z,32.00
2022-10-07T08:46:59.626Z,32.22
2022-10-07T08:49:36.531Z,31.67
2022-10-07T08:52:20.986Z,31.77
2022-10-07T08:54:49.319Z,32.13
2022-10-07T08:57:26.367Z,33.08
2022-10-07T08:59:59.936Z,32.58
2022-10-07T09:02:33.342Z,32.80
2022-10-07T09:05:07.987Z,32.35
2022-10-07T09:07:41.413Z,32.78
2022-10-07T09:10:30.094Z,33.45
2022-10-07T09:13:03.188Z,34.45
2022-10-07T09:15:40.631Z,34.30
2022-10-07T09:18:17.795Z,35.05
2022-10-07T09:20:53.595Z,33.80
2022-10-07T09:23:25.691Z,33.30
2022-10-07T09:25:53.814Z,32.38
2022-10-07T09:28:26.950Z,31.67
2022-10-07T09:30:55.091Z,32.65
2022-10-07T09:33:25.218Z,32.83
2022-10-07T09:35:57.569Z,31.25
2022-10-07T09:38:40.147Z,33.47
2022-10-07T09:41:17.481Z,33.63
2022-10-07T09:44:02.938Z,33.40
2022-10-07T09:46:47.191Z,31.80
2022-10-07T09:49:42.469Z,33.92
2022-10-07T09:52:18.545Z,34.53
2022-10-07T09:54:50.075Z,34.17
2022-10-07T09:57:30.890Z,34.25
2022-10-07T10:00:23.909Z,34.33
2022-10-07T10:03:04.066Z,33.40
2022-10-07T10:05:35.234Z,33.67
2022-10-07T10:08:06.536Z,32.15
2022-10-07T10:10:37.622Z,34.78
2022-10-07T10:13:07.519Z,33.60
2022-10-07T10:15:41.702Z,32.22
2022-10-07T10:18:35.274Z,32.95
2022-10-07T10:21:38.967Z,33.47
2022-10-07T10:24:11.652Z,34.15
2022-10-07T10:26:53.927Z,30.02
2022-10-07T10:29:38.251Z,32.15
2022-10-07T10:32:26.778Z,31.52
2022-10-07T10:35:00.987Z,34.20
2022-10-07T10:37:44.320Z,30.90
2022-10-07T10:40:22.987Z,30.17
2022-10-07T10:43:02.002Z,31.33
2022-10-07T10:45:36.380Z,29.08
2022-10-07T10:48:24.325Z,30.50
2022-10-07T10:50:58.665Z,30.85
2022-10-07T10:53:38.122Z,30.42
2022-10-07T10:56:18.539Z,31.35
2022-10-07T10:59:00.446Z,29.77
2022-10-07T11:01:36.467Z,29.95
2022-10-07T11:04:31.572Z,30.85
2022-10-07T11:07:03.206Z,30.95
2022-10-07T11:09:38.626Z,31.38
2022-10-07T11:12:18.691Z,32.42
2022-10-07T11:14:55.733Z,31.38
2022-10-07T11:17:31.327Z,31.05
2022-10-07T11:20:08.432Z,31.38
2022-10-07T11:22:42.196Z,31.65
2022-10-07T11:25:25.137Z,31.05
2022-10-07T11:27:56.798Z,30.23
2022-10-07T11:30:33.482Z,32.95
2022-10-07T11:33:08.242Z,32.80
2022-10-07T11:35:43.950Z,34.53
2022-10-07T11:38:18.499Z,32.38
2022-10-07T11:40:53.238Z,35.15
2022-10-07T11:43:26.619Z,33.05
2022-10-07T11:46:00.325Z,30.98
2022-10-07T11:48:33.622Z,30.77
2022-10-07T11:51:04.528Z,33.72
2022-10-07T11:53:37.216Z,33.80
2022-10-07T11:56:13.450Z,28.63
2022-10-07T11:58:44.806Z,29.35
2022-10-07T12:01:55.226Z,31.48
2022-10-07T12:04:47.468Z,30.48
2022-10-07T12:07:38.250Z,29.48
2022-10-07T12:10:22.035Z,31.73
2022-10-07T12:12:55.812Z,32.47
2022-10-07T12:15:36.220Z,32.97
2022-10-07T12:18:30.280Z,32.88
2022-10-07T12:21:09.099Z,34.45
2022-10-07T12:23:42.319Z,31.00
2022-10-07T12:26:44.623Z,32.03
2022-10-07T12:32:46.388Z,31.08
2022-10-07T12:35:54.407Z,31.73
2022-10-07T12:38:31.740Z,32.20
2022-10-07T12:41:18.734Z,32.53
2022-10-07T12:43:51.930Z,28.77
2022-10-07T12:46:22.708Z,26.88
2022-10-07T12:48:58.364Z,29.52
2022-10-07T12:51:30.243Z,28.10
2022-10-07T12:54:01.457Z,28.70
2022-10-07T12:56:31.308Z,28.58
2022-10-07T12:59:35.045Z,26.52
2022-10-07T13:02:50.221Z,23.30
2022-10-07T13:05:48.698Z,23.67
2022-10-07T13:09:02.775Z,27.40
2022-10-07T13:12:15.238Z,22.85
2022-10-07T13:14:58.478Z,20.50
2022-10-07T13:17:40.887Z,21.90
2022-10-07T13:20:21.244Z,21.10
2022-10-07T13:22:50.535Z,22.17
2022-10-07T13:25:22.040Z,22.63
2022-10-07T13:27:55.016Z,18.88
2022-10-07T13:30:38.933Z,19.67
2022-10-07T13:33:26.287Z,19.27
2022-10-07T13:36:07.819Z,15.02
2022-10-07T13:38:37.119Z,8.75
2022-10-07T13:41:10.755Z,5.20
2022-10-07T13:43:38.949Z,4.95
2022-10-07T13:46:10.520Z,3.95
2022-10-07T13:48:45.528Z,3.33
2022-10-07T13:51:20.560Z,4.18
2022-10-07T13:53:58.540Z,3.15
2022-10-07T13:56:31.843Z,3.00
2022-10-07T13:59:01.080Z,2.75
2022-10-07T14:01:31.464Z,2.97
2022-10-07T14:04:21.369Z,2.40
2022-10-07T14:06:56.048Z,2.63
2022-10-07T14:09:35.426Z,2.63
2022-10-07T14:12:07.902Z,3.00
2022-10-07T14:14:38.937Z,2.92
2022-10-07T14:17:18.206Z,2.40
2022-10-07T14:19:52.218Z,2.90
2022-10-07T14:22:25.127Z,2.80
2022-10-07T14:24:55.973Z,2.85
2022-10-07T14:27:53.917Z,2.85
2022-10-07T14:30:55.602Z,2.80
2022-10-07T14:33:48.531Z,3.45
2022-10-07T14:36:19.223Z,3.30
2022-10-07T14:38:49.032Z,2.60
2022-10-07T14:41:19.597Z,2.30
2022-10-07T14:43:51.909Z,2.35
2022-10-07T14:46:22.319Z,2.88
2022-10-07T14:48:51.351Z,2.95
2022-10-07T14:51:22.904Z,2.40
2022-10-07T14:53:54.204Z,2.55
2022-10-07T14:56:26.394Z,2.50
2022-10-07T14:58:56.231Z,2.47
2022-10-07T15:01:24.509Z,2.50
2022-10-07T15:03:52.819Z,2.47
2022-10-07T15:06:21.564Z,2.40
2022-10-07T15:08:50.043Z,2.58
2022-10-07T15:11:19.193Z,2.78
2022-10-07T15:13:47.860Z,2.50
2022-10-07T15:16:18.941Z,2.78
2022-10-07T15:18:52.109Z,2.35
2022-10-07T15:21:21.652Z,2.17
2022-10-07T15:23:52.214Z,2.63
2022-10-07T15:26:23.468Z,2.78
2022-10-07T15:28:52.440Z,2.92
2022-10-07T15:31:23.291Z,2.17
2022-10-07T15:33:51.933Z,2.42
2022-10-07T15:36:20.010Z,2.38
2022-10-07T15:38:48.026Z,2.88
2022-10-07T15:41:30.957Z,2.20
2022-10-07T15:44:00.448Z,2.50
2022-10-07T15:46:29.989Z,2.55
2022-10-07T15:48:59.623Z,2.30
2022-10-07T15:51:29.484Z,2.38
2022-10-07T15:53:57.755Z,2.40
2022-10-07T15:56:26.492Z,2.70
2022-10-07T15:58:54.591Z,3.20
2022-10-07T16:01:22.933Z,3.03
2022-10-07T16:03:52.366Z,3.20
2022-10-07T16:06:22.279Z,3.38
2022-10-07T16:08:51.200Z,4.22
2022-10-07T16:11:19.502Z,3.90
2022-10-07T16:13:49.135Z,4.47
2022-10-07T16:16:20.084Z,4.43
2022-10-07T16:18:49.319Z,5.13
2022-10-07T16:21:21.636Z,4.80
2022-10-07T16:23:50.757Z,5.50
2022-10-07T16:26:21.356Z,6.60
2022-10-07T16:29:08.335Z,6.65
2022-10-07T16:31:40.116Z,7.07
2022-10-07T16:34:09.118Z,6.50
2022-10-07T16:36:43.423Z,6.07
2022-10-07T16:39:13.867Z,4.60
2022-10-07T16:41:42.947Z,4.43
2022-10-07T16:44:11.453Z,3.88
2022-10-07T16:46:41.143Z,4.72
2022-10-07T16:49:12.306Z,4.00
2022-10-07T16:51:41.839Z,3.92
2022-10-07T16:54:13.136Z,3.80
2022-10-07T16:56:44.146Z,3.80
2022-10-07T16:59:17.378Z,3.13
2022-10-07T17:01:48.182Z,3.25
2022-10-07T17:04:17.752Z,3.88
2022-10-07T17:06:47.394Z,4.10
2022-10-07T17:09:18.010Z,4.82
2022-10-07T17:11:46.490Z,4.00
2022-10-07T17:14:16.660Z,4.35
2022-10-07T17:16:46.609Z,4.00
2022-10-07T17:19:17.540Z,3.70
2022-10-07T17:21:50.576Z,3.80
2022-10-07T17:24:20.145Z,3.67
2022-10-07T17:26:49.020Z,3.40
2022-10-07T17:29:21.175Z,2.90
2022-10-07T17:31:50.625Z,3.08
2022-10-07T17:34:21.127Z,3.08
2022-10-07T17:36:50.868Z,3.03
2022-10-07T17:39:22.030Z,3.70
2022-10-07T17:41:49.975Z,3.00
2022-10-07T17:44:18.621Z,3.30
2022-10-07T17:46:48.833Z,3.33
2022-10-07T17:49:17.137Z,2.63
2022-10-07T17:51:45.362Z,2.38
2022-10-07T17:54:16.831Z,2.70
2022-10-07T17:56:45.715Z,2.35
2022-10-07T17:59:14.361Z,2.38
2022-10-07T18:01:42.696Z,2.90
2022-10-07T18:04:12.799Z,2.90
2022-10-07T18:06:42.802Z,2.67
2022-10-07T18:09:13.603Z,3.17
2022-10-07T18:12:01.441Z,3.33
2022-10-07T18:14:53.295Z,2.80
2022-10-07T18:17:22.586Z,2.75
2022-10-07T18:19:50.478Z,2.63
2022-10-07T18:22:19.320Z,2.88
2022-10-07T18:24:47.499Z,2.72
2022-10-07T18:27:17.452Z,2.80
2022-10-07T18:29:45.884Z,2.92
2022-10-07T18:32:16.654Z,2.75
2022-10-07T18:34:47.580Z,2.70
2022-10-07T18:37:16.646Z,3.03
2022-10-07T18:39:44.777Z,3.35
2022-10-07T18:42:12.804Z,3.15
2022-10-07T18:44:42.721Z,3.00
2022-10-07T18:47:10.742Z,2.75
2022-10-07T18:49:38.816Z,2.88
2022-10-07T18:52:07.365Z,2.80
2022-10-07T18:54:35.294Z,3.25
2022-10-07T18:57:03.587Z,3.03
2022-10-07T18:59:34.817Z,3.58
2022-10-07T19:02:04.395Z,3.13
2022-10-07T19:04:32.611Z,3.63
2022-10-07T19:07:00.681Z,3.10
2022-10-07T19:09:28.836Z,2.90
2022-10-07T19:11:56.963Z,2.92
2022-10-07T19:14:26.080Z,3.30
2022-10-07T19:16:54.612Z,2.70
2022-10-07T19:19:25.674Z,3.35
2022-10-07T19:21:55.328Z,3.03
2022-10-07T19:24:44.536Z,3.40
2022-10-07T19:27:12.554Z,3.20
2022-10-07T19:29:42.111Z,2.88
2022-10-07T19:32:15.064Z,3.42
2022-10-07T19:34:51.471Z,3.35
2022-10-07T19:37:19.951Z,3.10
2022-10-07T19:39:48.036Z,3.53
2022-10-07T19:42:18.000Z,3.92
2022-10-07T19:44:48.166Z,3.70
2022-10-07T19:47:16.541Z,3.75
2022-10-07T19:49:49.323Z,3.65
2022-10-07T19:52:17.311Z,3.10
2022-10-07T19:54:45.877Z,3.78
2022-10-07T19:57:13.912Z,3.42
2022-10-07T19:59:41.874Z,4.05
2022-10-07T20:02:11.457Z,4.47
2022-10-07T20:04:41.505Z,4.32
2022-10-07T20:07:11.121Z,5.05
2022-10-07T20:09:40.142Z,4.30
2022-10-07T20:12:08.092Z,4.38
2022-10-07T20:14:36.121Z,5.10
2022-10-07T20:17:05.199Z,5.22
2022-10-07T20:19:33.894Z,5.45
2022-10-07T20:22:03.271Z,5.65
2022-10-07T20:24:49.137Z,6.75
2022-10-07T20:27:18.710Z,6.25
2022-10-07T20:29:58.724Z,8.48
2022-10-07T20:32:28.000Z,8.15
2022-10-07T20:34:59.650Z,8.48
2022-10-07T20:37:28.028Z,9.13
2022-10-07T20:40:17.811Z,10.07
2022-10-07T20:42:47.077Z,12.15
2022-10-07T20:45:15.365Z,13.43
2022-10-07T20:47:44.393Z,13.18
2022-10-07T20:50:15.379Z,14.90
2022-10-07T20:52:45.380Z,16.02
2022-10-07T20:55:15.268Z,16.20
2022-10-07T20:57:43.342Z,16.30
2022-10-07T21:00:16.301Z,16.48
2022-10-07T21:02:45.318Z,17.33
2022-10-07T21:05:13.764Z,19.70
2022-10-07T21:07:42.240Z,19.38
2022-10-07T21:10:10.247Z,20.30
2022-10-07T21:12:44.775Z,21.92
2022-10-07T21:15:13.062Z,22.27
2022-10-07T21:17:44.411Z,23.98
2022-10-07T21:20:12.324Z,24.38
2022-10-07T21:22:40.214Z,26.02
2022-10-07T21:25:11.990Z,25.65
2022-10-07T21:27:43.657Z,26.73
2022-10-07T21:30:12.569Z,27.63
2022-10-07T21:32:42.162Z,29.35
2022-10-07T21:35:13.402Z,31.33
2022-10-07T21:37:41.545Z,31.17
2022-10-07T21:40:10.495Z,31.63
2022-10-07T21:42:38.629Z,34.97
2022-10-07T21:45:09.689Z,34.35
2022-10-07T21:47:40.632Z,35.97
2022-10-07T21:50:12.651Z,36.67
2022-10-07T21:52:42.030Z,36.95
2022-10-07T21:55:10.599Z,39.63
2022-10-07T21:57:40.347Z,38.53
2022-10-07T22:00:12.293Z,40.00
2022-10-07T22:02:40.494Z,40.72
2022-10-07T22:05:11.498Z,41.92
2022-10-07T22:07:56.765Z,41.08
2022-10-07T22:10:24.823Z,40.58
2022-10-07T22:12:52.944Z,41.00
2022-10-07T22:15:23.760Z,41.25
2022-10-07T22:17:51.837Z,41.83
2022-10-07T22:20:20.072Z,40.78
2022-10-07T22:22:48.950Z,41.63
2022-10-07T22:25:17.258Z,41.58
2022-10-07T22:27:45.178Z,41.70
2022-10-07T22:30:14.150Z,41.55
2022-10-07T22:32:44.036Z,41.50
2022-10-07T22:35:33.625Z,35.58
2022-10-07T22:38:01.617Z,30.10
2022-10-07T22:40:29.668Z,30.15
2022-10-07T22:42:57.595Z,29.23
2022-10-07T22:45:25.577Z,29.65
2022-10-07T22:47:55.175Z,28.30
2022-10-07T22:50:23.284Z,28.92
2022-10-07T22:52:51.385Z,29.23
2022-10-07T22:55:21.323Z,27.55
2022-10-07T22:57:49.307Z,27.58
2022-10-07T23:00:17.563Z,28.60
2022-10-07T23:02:46.021Z,29.02
2022-10-07T23:05:17.520Z,28.80
2022-10-07T23:07:45.519Z,29.05
2022-10-07T23:10:13.557Z,28.48
2022-10-07T23:12:41.484Z,28.65
2022-10-07T23:15:10.061Z,28.88
2022-10-07T23:17:38.044Z,28.10
2022-10-07T23:20:06.979Z,29.13
2022-10-07T23:22:40.019Z,28.45
2022-10-07T23:25:09.073Z,28.55
2022-10-07T23:27:39.204Z,28.52
2022-10-07T23:30:08.848Z,29.02
2022-10-07T23:32:36.785Z,28.55
2022-10-07T23:35:05.240Z,27.98
2022-10-07T23:37:33.308Z,28.73
2022-10-07T23:40:03.770Z,28.02
2022-10-07T23:42:31.709Z,28.83
2022-10-07T23:45:01.539Z,27.98
2022-10-07T23:47:29.498Z,28.48
2022-10-07T23:49:57.528Z,28.70
2022-10-07T23:52:25.590Z,30.35
2022-10-07T23:54:53.643Z,29.02
2022-10-07T23:57:23.020Z,28.95
2022-10-07T23:59:51.049Z,29.75
